sensor_id;sensor_type;location;lat;lon;timestamp;P1;durP1;ratioP1;P2;durP2;ratioP2
22673;SDS011;11504;43.334;21.918;2022-11-09T00:01:48;40.0;;;37.0;;
22673;SDS011;11504;43.334;21.918;2022-11-09T00:06:27;40.0;;;37.0;;
22673;SDS011;11504;43.334;21.918;2022-11-09T00:11:10;34.0;;;32.0;;
22673;SDS011;11504;43.334;21.918;2022-11-09T00:15:47;34.0;;;32.0;;
22673;SDS011;11504;43.334;21.918;2022-11-09T00:20:24;29.0;;;26.0;;
22673;SDS011;11504;43.334;21.918;2022-11-09T00:25:00;29.0;;;26.0;;
22673;SDS011;11504;43.334;21.918;2022-11-09T00:29:36;26.0;;;24.0;;
22673;SDS011;11504;43.334;21.918;2022-11-09T00:34:13;26.0;;;24.0;;
22673;SDS011;11504;43.334;21.918;2022-11-09T00:38:52;26.0;;;24.0;;
22673;SDS011;11504;43.334;21.918;2022-11-09T00:43:35;22.0;;;21.0;;
22673;SDS011;11504;43.334;21.918;2022-11-09T00:48:13;22.0;;;21.0;;
22673;SDS011;11504;43.334;21.918;2022-11-09T00:52:50;24.0;;;22.0;;
22673;SDS011;11504;43.334;21.918;2022-11-09T00:57:27;24.0;;;22.0;;
22673;SDS011;11504;43.334;21.918;2022-11-09T01:02:04;25.0;;;23.0;;
22673;SDS011;11504;43.334;21.918;2022-11-09T01:06:41;25.0;;;23.0;;
22673;SDS011;11504;43.334;21.918;2022-11-09T01:11:20;28.0;;;27.0;;
22673;SDS011;11504;43.334;21.918;2022-11-09T01:16:03;28.0;;;27.0;;
22673;SDS011;11504;43.334;21.918;2022-11-09T01:20:51;32.0;;;31.0;;
22673;SDS011;11504;43.334;21.918;2022-11-09T01:25:28;32.0;;;31.0;;
22673;SDS011;11504;43.334;21.918;2022-11-09T01:30:06;32.0;;;30.0;;
22673;SDS011;11504;43.334;21.918;2022-11-09T01:34:45;32.0;;;30.0;;
22673;SDS011;11504;43.334;21.918;2022-11-09T01:39:22;32.0;;;30.0;;
22673;SDS011;11504;43.334;21.918;2022-11-09T01:44:06;32.0;;;30.0;;
22673;SDS011;11504;43.334;21.918;2022-11-09T01:48:53;32.0;;;30.0;;
22673;SDS011;11504;43.334;21.918;2022-11-09T01:53:52;36.0;;;33.0;;
22673;SDS011;11504;43.334;21.918;2022-11-09T01:58:52;36.0;;;33.0;;
22673;SDS011;11504;43.334;21.918;2022-11-09T02:03:43;39.0;;;36.0;;
22673;SDS011;11504;43.334;21.918;2022-11-09T02:08:42;39.0;;;36.0;;
22673;SDS011;11504;43.334;21.918;2022-11-09T02:13:28;35.0;;;33.0;;
22673;SDS011;11504;43.334;21.918;2022-11-09T02:18:15;35.0;;;33.0;;
22673;SDS011;11504;43.334;21.918;2022-11-09T02:22:56;31.0;;;30.0;;
22673;SDS011;11504;43.334;21.918;2022-11-09T02:27:34;31.0;;;30.0;;
22673;SDS011;11504;43.334;21.918;2022-11-09T02:32:20;27.0;;;26.0;;
22673;SDS011;11504;43.334;21.918;2022-11-09T02:37:05;27.0;;;26.0;;
22673;SDS011;11504;43.334;21.918;2022-11-09T02:41:51;23.0;;;21.0;;
22673;SDS011;11504;43.334;21.918;2022-11-09T02:46:40;23.0;;;21.0;;
22673;SDS011;11504;43.334;21.918;2022-11-09T02:51:17;24.0;;;21.0;;
22673;SDS011;11504;43.334;21.918;2022-11-09T02:55:54;24.0;;;21.0;;
22673;SDS011;11504;43.334;21.918;2022-11-09T03:00:30;26.0;;;21.0;;
22673;SDS011;11504;43.334;21.918;2022-11-09T03:05:07;26.0;;;21.0;;
22673;SDS011;11504;43.334;21.918;2022-11-09T03:09:44;24.0;;;20.0;;
22673;SDS011;11504;43.334;21.918;2022-11-09T03:14:20;24.0;;;20.0;;
22673;SDS011;11504;43.334;21.918;2022-11-09T03:18:57;24.0;;;20.0;;
22673;SDS011;11504;43.334;21.918;2022-11-09T03:23:34;22.0;;;20.0;;
22673;SDS011;11504;43.334;21.918;2022-11-09T03:28:11;22.0;;;20.0;;
22673;SDS011;11504;43.334;21.918;2022-11-09T03:32:47;24.0;;;21.0;;
22673;SDS011;11504;43.334;21.918;2022-11-09T03:37:24;24.0;;;21.0;;
22673;SDS011;11504;43.334;21.918;2022-11-09T03:42:01;25.0;;;22.0;;
22673;SDS011;11504;43.334;21.918;2022-11-09T03:46:39;25.0;;;22.0;;
22673;SDS011;11504;43.334;21.918;2022-11-09T03:51:16;28.0;;;24.0;;
22673;SDS011;11504;43.334;21.918;2022-11-09T03:55:52;28.0;;;24.0;;
22673;SDS011;11504;43.334;21.918;2022-11-09T04:00:33;30.0;;;26.0;;
22673;SDS011;11504;43.334;21.918;2022-11-09T04:05:11;30.0;;;26.0;;
22673;SDS011;11504;43.334;21.918;2022-11-09T04:09:50;27.0;;;24.0;;
22673;SDS011;11504;43.334;21.918;2022-11-09T04:14:26;27.0;;;24.0;;
22673;SDS011;11504;43.334;21.918;2022-11-09T04:19:03;27.0;;;24.0;;
22673;SDS011;11504;43.334;21.918;2022-11-09T04:23:40;24.0;;;21.0;;
22673;SDS011;11504;43.334;21.918;2022-11-09T04:28:16;24.0;;;21.0;;
22673;SDS011;11504;43.334;21.918;2022-11-09T04:32:54;23.0;;;21.0;;
22673;SDS011;11504;43.334;21.918;2022-11-09T04:37:32;23.0;;;21.0;;
22673;SDS011;11504;43.334;21.918;2022-11-09T04:42:09;22.0;;;21.0;;
22673;SDS011;11504;43.334;21.918;2022-11-09T04:46:46;22.0;;;21.0;;
22673;SDS011;11504;43.334;21.918;2022-11-09T04:51:22;22.0;;;20.0;;
22673;SDS011;11504;43.334;21.918;2022-11-09T04:55:59;22.0;;;20.0;;
22673;SDS011;11504;43.334;21.918;2022-11-09T05:00:37;21.0;;;20.0;;
22673;SDS011;11504;43.334;21.918;2022-11-09T05:05:14;21.0;;;20.0;;
22673;SDS011;11504;43.334;21.918;2022-11-09T05:09:51;20.0;;;18.0;;
22673;SDS011;11504;43.334;21.918;2022-11-09T05:14:28;20.0;;;18.0;;
22673;SDS011;11504;43.334;21.918;2022-11-09T05:19:05;20.0;;;18.0;;
22673;SDS011;11504;43.334;21.918;2022-11-09T05:23:43;19.0;;;17.0;;
22673;SDS011;11504;43.334;21.918;2022-11-09T05:28:21;19.0;;;17.0;;
22673;SDS011;11504;43.334;21.918;2022-11-09T05:32:57;20.0;;;18.0;;
22673;SDS011;11504;43.334;21.918;2022-11-09T05:37:34;20.0;;;18.0;;
22673;SDS011;11504;43.334;21.918;2022-11-09T05:42:14;20.0;;;19.0;;
22673;SDS011;11504;43.334;21.918;2022-11-09T05:46:50;20.0;;;19.0;;
22673;SDS011;11504;43.334;21.918;2022-11-09T05:51:26;22.0;;;21.0;;
22673;SDS011;11504;43.334;21.918;2022-11-09T05:56:05;22.0;;;21.0;;
22673;SDS011;11504;43.334;21.918;2022-11-09T06:00:48;24.0;;;23.0;;
22673;SDS011;11504;43.334;21.918;2022-11-09T06:05:24;24.0;;;23.0;;
22673;SDS011;11504;43.334;21.918;2022-11-09T06:10:01;29.0;;;28.0;;
22673;SDS011;11504;43.334;21.918;2022-11-09T06:14:43;29.0;;;28.0;;
22673;SDS011;11504;43.334;21.918;2022-11-09T06:19:21;29.0;;;28.0;;
22673;SDS011;11504;43.334;21.918;2022-11-09T06:23:57;34.0;;;32.0;;
22673;SDS011;11504;43.334;21.918;2022-11-09T06:28:35;34.0;;;32.0;;
22673;SDS011;11504;43.334;21.918;2022-11-09T06:33:16;34.0;;;32.0;;
22673;SDS011;11504;43.334;21.918;2022-11-09T06:37:55;34.0;;;32.0;;
22673;SDS011;11504;43.334;21.918;2022-11-09T06:42:35;33.0;;;31.0;;
22673;SDS011;11504;43.334;21.918;2022-11-09T06:47:11;33.0;;;31.0;;
22673;SDS011;11504;43.334;21.918;2022-11-09T06:51:48;36.0;;;34.0;;
22673;SDS011;11504;43.334;21.918;2022-11-09T06:56:24;36.0;;;34.0;;
22673;SDS011;11504;43.334;21.918;2022-11-09T07:01:06;40.0;;;36.0;;
22673;SDS011;11504;43.334;21.918;2022-11-09T07:05:47;40.0;;;36.0;;
22673;SDS011;11504;43.334;21.918;2022-11-09T07:10:26;38.0;;;34.0;;
22673;SDS011;11504;43.334;21.918;2022-11-09T07:15:04;38.0;;;34.0;;
22673;SDS011;11504;43.334;21.918;2022-11-09T07:19:46;38.0;;;34.0;;
22673;SDS011;11504;43.334;21.918;2022-11-09T07:24:23;35.0;;;33.0;;
22673;SDS011;11504;43.334;21.918;2022-11-09T07:28:59;35.0;;;33.0;;
22673;SDS011;11504;43.334;21.918;2022-11-09T07:33:37;32.0;;;30.0;;
22673;SDS011;11504;43.334;21.918;2022-11-09T07:38:14;32.0;;;30.0;;
22673;SDS011;11504;43.334;21.918;2022-11-09T07:42:56;28.0;;;26.0;;
22673;SDS011;11504;43.334;21.918;2022-11-09T07:47:36;28.0;;;26.0;;
22673;SDS011;11504;43.334;21.918;2022-11-09T07:52:13;28.0;;;26.0;;
22673;SDS011;11504;43.334;21.918;2022-11-09T07:56:50;28.0;;;26.0;;
22673;SDS011;11504;43.334;21.918;2022-11-09T08:01:26;28.0;;;26.0;;
22673;SDS011;11504;43.334;21.918;2022-11-09T08:06:04;28.0;;;26.0;;
22673;SDS011;11504;43.334;21.918;2022-11-09T08:10:43;32.0;;;30.0;;
22673;SDS011;11504;43.334;21.918;2022-11-09T08:15:20;32.0;;;30.0;;
22673;SDS011;11504;43.334;21.918;2022-11-09T08:19:56;35.0;;;33.0;;
22673;SDS011;11504;43.334;21.918;2022-11-09T08:24:32;35.0;;;33.0;;
22673;SDS011;11504;43.334;21.918;2022-11-09T08:29:08;35.0;;;33.0;;
22673;SDS011;11504;43.334;21.918;2022-11-09T08:33:45;36.0;;;33.0;;
22673;SDS011;11504;43.334;21.918;2022-11-09T08:38:22;36.0;;;33.0;;
22673;SDS011;11504;43.334;21.918;2022-11-09T08:42:59;37.0;;;33.0;;
22673;SDS011;11504;43.334;21.918;2022-11-09T08:47:45;37.0;;;33.0;;
22673;SDS011;11504;43.334;21.918;2022-11-09T08:52:23;38.0;;;34.0;;
22673;SDS011;11504;43.334;21.918;2022-11-09T08:57:00;38.0;;;34.0;;
22673;SDS011;11504;43.334;21.918;2022-11-09T09:01:38;40.0;;;35.0;;
22673;SDS011;11504;43.334;21.918;2022-11-09T09:06:14;40.0;;;35.0;;
22673;SDS011;11504;43.334;21.918;2022-11-09T09:10:51;38.0;;;34.0;;
22673;SDS011;11504;43.334;21.918;2022-11-09T09:15:28;38.0;;;34.0;;
22673;SDS011;11504;43.334;21.918;2022-11-09T09:20:06;36.0;;;32.0;;
22673;SDS011;11504;43.334;21.918;2022-11-09T09:24:45;36.0;;;32.0;;
22673;SDS011;11504;43.334;21.918;2022-11-09T09:29:22;36.0;;;32.0;;
22673;SDS011;11504;43.334;21.918;2022-11-09T09:33:59;35.0;;;31.0;;
22673;SDS011;11504;43.334;21.918;2022-11-09T09:38:35;35.0;;;31.0;;
22673;SDS011;11504;43.334;21.918;2022-11-09T09:43:13;34.0;;;30.0;;
22673;SDS011;11504;43.334;21.918;2022-11-09T09:48:12;34.0;;;30.0;;
22673;SDS011;11504;43.334;21.918;2022-11-09T09:53:20;33.0;;;30.0;;
22673;SDS011;11504;43.334;21.918;2022-11-09T09:58:22;33.0;;;30.0;;
22673;SDS011;11504;43.334;21.918;2022-11-09T10:03:14;32.0;;;30.0;;
22673;SDS011;11504;43.334;21.918;2022-11-09T10:07:58;32.0;;;30.0;;
22673;SDS011;11504;43.334;21.918;2022-11-09T10:13:29;30.0;;;28.0;;
22673;SDS011;11504;43.334;21.918;2022-11-09T10:20:54;28.0;;;27.0;;
22673;SDS011;11504;43.334;21.918;2022-11-09T10:26:28;28.0;;;27.0;;
22673;SDS011;11504;43.334;21.918;2022-11-09T10:31:28;29.0;;;27.0;;
22673;SDS011;11504;43.334;21.918;2022-11-09T10:36:23;29.0;;;27.0;;
22673;SDS011;11504;43.334;21.918;2022-11-09T10:41:38;30.0;;;27.0;;
22673;SDS011;11504;43.334;21.918;2022-11-09T10:46:20;30.0;;;27.0;;
22673;SDS011;11504;43.334;21.918;2022-11-09T10:50:58;29.0;;;26.0;;
22673;SDS011;11504;43.334;21.918;2022-11-09T10:55:35;29.0;;;26.0;;
22673;SDS011;11504;43.334;21.918;2022-11-09T11:00:23;28.0;;;26.0;;
22673;SDS011;11504;43.334;21.918;2022-11-09T11:05:19;28.0;;;26.0;;
22673;SDS011;11504;43.334;21.918;2022-11-09T11:10:09;30.0;;;27.0;;
22673;SDS011;11504;43.334;21.918;2022-11-09T11:14:54;30.0;;;27.0;;
22673;SDS011;11504;43.334;21.918;2022-11-09T11:19:33;30.0;;;27.0;;
22673;SDS011;11504;43.334;21.918;2022-11-09T11:24:16;33.0;;;28.0;;
22673;SDS011;11504;43.334;21.918;2022-11-09T11:28:57;33.0;;;28.0;;
22673;SDS011;11504;43.334;21.918;2022-11-09T11:34:15;34.0;;;30.0;;
22673;SDS011;11504;43.334;21.918;2022-11-09T11:38:55;34.0;;;30.0;;
22673;SDS011;11504;43.334;21.918;2022-11-09T11:44:36;34.0;;;31.0;;
22673;SDS011;11504;43.334;21.918;2022-11-09T11:50:07;34.0;;;31.0;;
22673;SDS011;11504;43.334;21.918;2022-11-09T11:55:41;34.0;;;30.0;;
22673;SDS011;11504;43.334;21.918;2022-11-09T12:01:12;33.0;;;28.0;;
22673;SDS011;11504;43.334;21.918;2022-11-09T12:07:13;33.0;;;28.0;;
22673;SDS011;11504;43.334;21.918;2022-11-09T12:12:34;32.0;;;28.0;;
22673;SDS011;11504;43.334;21.918;2022-11-09T12:17:51;32.0;;;28.0;;
22673;SDS011;11504;43.334;21.918;2022-11-09T12:23:18;31.0;;;29.0;;
22673;SDS011;11504;43.334;21.918;2022-11-09T12:29:03;31.0;;;29.0;;
22673;SDS011;11504;43.334;21.918;2022-11-09T12:33:58;29.0;;;28.0;;
22673;SDS011;11504;43.334;21.918;2022-11-09T12:38:57;29.0;;;28.0;;
22673;SDS011;11504;43.334;21.918;2022-11-09T12:44:00;27.0;;;26.0;;
22673;SDS011;11504;43.334;21.918;2022-11-09T12:49:02;27.0;;;26.0;;
22673;SDS011;11504;43.334;21.918;2022-11-09T12:54:12;31.0;;;30.0;;
22673;SDS011;11504;43.334;21.918;2022-11-09T12:58:50;31.0;;;30.0;;
22673;SDS011;11504;43.334;21.918;2022-11-09T13:03:27;35.0;;;33.0;;
22673;SDS011;11504;43.334;21.918;2022-11-09T13:08:30;35.0;;;33.0;;
22673;SDS011;11504;43.334;21.918;2022-11-09T13:13:18;35.0;;;32.0;;
22673;SDS011;11504;43.334;21.918;2022-11-09T13:18:02;35.0;;;32.0;;
22673;SDS011;11504;43.334;21.918;2022-11-09T13:23:28;35.0;;;32.0;;
22673;SDS011;11504;43.334;21.918;2022-11-09T13:28:39;35.0;;;32.0;;
22673;SDS011;11504;43.334;21.918;2022-11-09T13:34:37;36.0;;;33.0;;
22673;SDS011;11504;43.334;21.918;2022-11-09T13:39:30;36.0;;;33.0;;
22673;SDS011;11504;43.334;21.918;2022-11-09T13:44:15;36.0;;;34.0;;
22673;SDS011;11504;43.334;21.918;2022-11-09T13:49:03;36.0;;;34.0;;
22673;SDS011;11504;43.334;21.918;2022-11-09T13:54:27;34.0;;;32.0;;
22673;SDS011;11504;43.334;21.918;2022-11-09T13:59:13;34.0;;;32.0;;
22673;SDS011;11504;43.334;21.918;2022-11-09T14:04:21;33.0;;;30.0;;
22673;SDS011;11504;43.334;21.918;2022-11-09T14:09:15;33.0;;;30.0;;
22673;SDS011;11504;43.334;21.918;2022-11-09T14:14:00;34.0;;;31.0;;
22673;SDS011;11504;43.334;21.918;2022-11-09T14:20:03;34.0;;;31.0;;
22673;SDS011;11504;43.334;21.918;2022-11-09T14:25:25;34.0;;;32.0;;
22673;SDS011;11504;43.334;21.918;2022-11-09T14:35:09;35.0;;;32.0;;
22673;SDS011;11504;43.334;21.918;2022-11-09T14:40:13;35.0;;;32.0;;
22673;SDS011;11504;43.334;21.918;2022-11-09T14:45:03;36.0;;;33.0;;
22673;SDS011;11504;43.334;21.918;2022-11-09T14:49:51;36.0;;;33.0;;
22673;SDS011;11504;43.334;21.918;2022-11-09T14:54:28;39.0;;;36.0;;
22673;SDS011;11504;43.334;21.918;2022-11-09T14:59:07;39.0;;;36.0;;
22673;SDS011;11504;43.334;21.918;2022-11-09T15:04:06;42.0;;;40.0;;
22673;SDS011;11504;43.334;21.918;2022-11-09T15:08:53;42.0;;;40.0;;
22673;SDS011;11504;43.334;21.918;2022-11-09T15:13:38;45.0;;;42.0;;
22673;SDS011;11504;43.334;21.918;2022-11-09T15:18:17;45.0;;;42.0;;
22673;SDS011;11504;43.334;21.918;2022-11-09T15:23:04;48.0;;;43.0;;
22673;SDS011;11504;43.334;21.918;2022-11-09T15:28:21;48.0;;;43.0;;
22673;SDS011;11504;43.334;21.918;2022-11-09T15:33:10;54.0;;;50.0;;
22673;SDS011;11504;43.334;21.918;2022-11-09T15:38:33;54.0;;;50.0;;
22673;SDS011;11504;43.334;21.918;2022-11-09T15:43:20;61.0;;;56.0;;
22673;SDS011;11504;43.334;21.918;2022-11-09T15:47:57;61.0;;;56.0;;
22673;SDS011;11504;43.334;21.918;2022-11-09T15:52:36;64.0;;;60.0;;
22673;SDS011;11504;43.334;21.918;2022-11-09T15:57:14;64.0;;;60.0;;
22673;SDS011;11504;43.334;21.918;2022-11-09T16:01:55;67.0;;;64.0;;
22673;SDS011;11504;43.334;21.918;2022-11-09T16:06:31;67.0;;;64.0;;
22673;SDS011;11504;43.334;21.918;2022-11-09T16:11:08;84.0;;;78.0;;
22673;SDS011;11504;43.334;21.918;2022-11-09T16:15:45;84.0;;;78.0;;
22673;SDS011;11504;43.334;21.918;2022-11-09T16:20:22;102.0;;;92.0;;
22673;SDS011;11504;43.334;21.918;2022-11-09T16:24:58;102.0;;;92.0;;
22673;SDS011;11504;43.334;21.918;2022-11-09T16:29:34;102.0;;;92.0;;
22673;SDS011;11504;43.334;21.918;2022-11-09T16:34:11;126.0;;;115.0;;
22673;SDS011;11504;43.334;21.918;2022-11-09T16:38:48;126.0;;;115.0;;
22673;SDS011;11504;43.334;21.918;2022-11-09T16:43:31;151.0;;;138.0;;
22673;SDS011;11504;43.334;21.918;2022-11-09T16:48:15;151.0;;;138.0;;
22673;SDS011;11504;43.334;21.918;2022-11-09T16:52:53;136.0;;;126.0;;
22673;SDS011;11504;43.334;21.918;2022-11-09T16:57:30;136.0;;;126.0;;
22673;SDS011;11504;43.334;21.918;2022-11-09T17:02:07;122.0;;;114.0;;
22673;SDS011;11504;43.334;21.918;2022-11-09T17:06:44;122.0;;;114.0;;
22673;SDS011;11504;43.334;21.918;2022-11-09T17:11:23;106.0;;;98.0;;
22673;SDS011;11504;43.334;21.918;2022-11-09T17:16:02;106.0;;;98.0;;
22673;SDS011;11504;43.334;21.918;2022-11-09T17:20:49;91.0;;;81.0;;
22673;SDS011;11504;43.334;21.918;2022-11-09T17:25:26;91.0;;;81.0;;
22673;SDS011;11504;43.334;21.918;2022-11-09T17:30:03;91.0;;;81.0;;
22673;SDS011;11504;43.334;21.918;2022-11-09T17:34:44;72.0;;;64.0;;
22673;SDS011;11504;43.334;21.918;2022-11-09T17:39:21;72.0;;;64.0;;
22673;SDS011;11504;43.334;21.918;2022-11-09T17:43:59;52.0;;;47.0;;
22673;SDS011;11504;43.334;21.918;2022-11-09T17:48:36;52.0;;;47.0;;
22673;SDS011;11504;43.334;21.918;2022-11-09T17:53:20;52.0;;;47.0;;
22673;SDS011;11504;43.334;21.918;2022-11-09T17:57:57;52.0;;;47.0;;
22673;SDS011;11504;43.334;21.918;2022-11-09T18:02:34;51.0;;;47.0;;
22673;SDS011;11504;43.334;21.918;2022-11-09T18:07:11;51.0;;;47.0;;
22673;SDS011;11504;43.334;21.918;2022-11-09T18:11:48;51.0;;;47.0;;
22673;SDS011;11504;43.334;21.918;2022-11-09T18:16:24;51.0;;;47.0;;
22673;SDS011;11504;43.334;21.918;2022-11-09T18:30:33;44.0;;;42.0;;
22673;SDS011;11504;43.334;21.918;2022-11-09T18:35:09;44.0;;;42.0;;
22673;SDS011;11504;43.334;21.918;2022-11-09T18:39:46;44.0;;;42.0;;
22673;SDS011;11504;43.334;21.918;2022-11-09T18:44:24;44.0;;;42.0;;
22673;SDS011;11504;43.334;21.918;2022-11-09T18:49:00;44.0;;;42.0;;
22673;SDS011;11504;43.334;21.918;2022-11-09T18:53:45;44.0;;;42.0;;
22673;SDS011;11504;43.334;21.918;2022-11-09T18:58:23;44.0;;;42.0;;
22673;SDS011;11504;43.334;21.918;2022-11-09T19:30:47;51.0;;;44.0;;
22673;SDS011;11504;43.334;21.918;2022-11-09T19:35:24;51.0;;;44.0;;
22673;SDS011;11504;43.334;21.918;2022-11-09T19:40:00;51.0;;;44.0;;
22673;SDS011;11504;43.334;21.918;2022-11-09T19:44:36;51.0;;;44.0;;
22673;SDS011;11504;43.334;21.918;2022-11-09T19:49:13;51.0;;;44.0;;
22673;SDS011;11504;43.334;21.918;2022-11-09T19:53:53;66.0;;;58.0;;
22673;SDS011;11504;43.334;21.918;2022-11-09T19:58:31;66.0;;;58.0;;
22673;SDS011;11504;43.334;21.918;2022-11-09T20:03:07;80.0;;;73.0;;
22673;SDS011;11504;43.334;21.918;2022-11-09T20:07:44;80.0;;;73.0;;
22673;SDS011;11504;43.334;21.918;2022-11-09T20:12:20;68.0;;;64.0;;
22673;SDS011;11504;43.334;21.918;2022-11-09T20:16:56;68.0;;;64.0;;
22673;SDS011;11504;43.334;21.918;2022-11-09T20:21:32;56.0;;;54.0;;
22673;SDS011;11504;43.334;21.918;2022-11-09T20:26:11;56.0;;;54.0;;
22673;SDS011;11504;43.334;21.918;2022-11-09T20:30:47;51.0;;;48.0;;
22673;SDS011;11504;43.334;21.918;2022-11-09T20:35:24;51.0;;;48.0;;
22673;SDS011;11504;43.334;21.918;2022-11-09T20:40:00;51.0;;;48.0;;
22673;SDS011;11504;43.334;21.918;2022-11-09T20:44:37;46.0;;;41.0;;
22673;SDS011;11504;43.334;21.918;2022-11-09T20:49:14;46.0;;;41.0;;
22673;SDS011;11504;43.334;21.918;2022-11-09T20:53:51;42.0;;;38.0;;
22673;SDS011;11504;43.334;21.918;2022-11-09T20:58:28;42.0;;;38.0;;
22673;SDS011;11504;43.334;21.918;2022-11-09T21:03:07;39.0;;;36.0;;
22673;SDS011;11504;43.334;21.918;2022-11-09T21:07:43;39.0;;;36.0;;
22673;SDS011;11504;43.334;21.918;2022-11-09T21:12:21;39.0;;;36.0;;
22673;SDS011;11504;43.334;21.918;2022-11-09T21:16:57;39.0;;;36.0;;
22673;SDS011;11504;43.334;21.918;2022-11-09T21:53:48;54.0;;;50.0;;
22673;SDS011;11504;43.334;21.918;2022-11-09T21:58:25;54.0;;;50.0;;
22673;SDS011;11504;43.334;21.918;2022-11-09T22:03:02;54.0;;;50.0;;
22673;SDS011;11504;43.334;21.918;2022-11-09T22:07:38;54.0;;;50.0;;
22673;SDS011;11504;43.334;21.918;2022-11-09T22:12:14;54.0;;;50.0;;
22673;SDS011;11504;43.334;21.918;2022-11-09T22:16:51;54.0;;;50.0;;
22673;SDS011;11504;43.334;21.918;2022-11-09T22:35:15;38.0;;;35.0;;
22673;SDS011;11504;43.334;21.918;2022-11-09T22:39:52;38.0;;;35.0;;
22673;SDS011;11504;43.334;21.918;2022-11-09T22:44:28;38.0;;;35.0;;
22673;SDS011;11504;43.334;21.918;2022-11-09T22:49:05;38.0;;;35.0;;
22673;SDS011;11504;43.334;21.918;2022-11-09T22:53:42;36.0;;;33.0;;
22673;SDS011;11504;43.334;21.918;2022-11-09T22:58:25;36.0;;;33.0;;
22673;SDS011;11504;43.334;21.918;2022-11-09T23:03:02;34.0;;;31.0;;
22673;SDS011;11504;43.334;21.918;2022-11-09T23:07:39;34.0;;;31.0;;
22673;SDS011;11504;43.334;21.918;2022-11-09T23:12:16;46.0;;;42.0;;
22673;SDS011;11504;43.334;21.918;2022-11-09T23:16:53;46.0;;;42.0;;
22673;SDS011;11504;43.334;21.918;2022-11-09T23:21:35;58.0;;;52.0;;
22673;SDS011;11504;43.334;21.918;2022-11-09T23:26:12;58.0;;;52.0;;
22673;SDS011;11504;43.334;21.918;2022-11-09T23:30:49;46.0;;;42.0;;
22673;SDS011;11504;43.334;21.918;2022-11-09T23:35:26;46.0;;;42.0;;
22673;SDS011;11504;43.334;21.918;2022-11-09T23:40:07;46.0;;;42.0;;
22673;SDS011;11504;43.334;21.918;2022-11-09T23:44:45;33.0;;;31.0;;
22673;SDS011;11504;43.334;21.918;2022-11-09T23:49:22;33.0;;;31.0;;
22673;SDS011;11504;43.334;21.918;2022-11-09T23:53:58;34.0;;;32.0;;
22673;SDS011;11504;43.334;21.918;2022-11-09T23:58:36;34.0;;;32.0;;
